Nenana Municipal Airport Nenana US
ICAO: PANN
IATA:
Category: Medium
Scheduled Services:

Elevation: 362 ft
TransAlt. 18000 ft.

Airport Communications:
FAIRBANKS APP/DEP:125.35
ASOS:125.2
CTAF:122.1
FAIRBANKS RDO:122.5
TWEB:115.8

PANN Zoom In..

Runways:

(A) RW 04L length 4600 ft width 100 ft
---- / hdg 38

(B) RW 04R length 2520 ft width 60 ft
---- / hdg 38

(C) RW 22L length 2520 ft width 60 ft
---- / hdg 218

(D) RW 22R length 4600 ft width 100 ft
---- / hdg 218

Location; PANN
Day. 21 / Time. 23.53 Zulu
* Altimeter: 29.97
* Temperature: -24° c. 11.2°f.
* Wind from: 000° Speed 00 kn.
Dewpoint: -27° c.
Visibility: 10 Statute Miles.
Clouds: Overcast 4600 ft.

PANN 212353Z AUTO 00000KT 10SM OVC046 M24/M27 A2997 RMK AO2 SLP166 60000 T12391272 11239 21289 56005 TSNO


Wind - Calm.

jpsM music video
CHECK IT OUT

jpsM - It Moves..

 
jpsmedia.com for Web Design  worldairports.se 2018   terms of use